sensor_id;sensor_type;location;lat;lon;timestamp;P1;durP1;ratioP1;P2;durP2;ratioP2
64903;SDS011;51401;48.882;12.598;2024-02-23T00:02:24;12.68;;;9.88;;
64903;SDS011;51401;48.882;12.598;2024-02-23T00:04:50;15.45;;;11.25;;
64903;SDS011;51401;48.882;12.598;2024-02-23T00:07:15;14.98;;;10.25;;
64903;SDS011;51401;48.882;12.598;2024-02-23T00:09:41;13.30;;;10.00;;
64903;SDS011;51401;48.882;12.598;2024-02-23T00:12:06;14.18;;;10.95;;
64903;SDS011;51401;48.882;12.598;2024-02-23T00:14:33;12.60;;;9.52;;
64903;SDS011;51401;48.882;12.598;2024-02-23T00:17:01;6.65;;;5.40;;
64903;SDS011;51401;48.882;12.598;2024-02-23T00:19:27;6.20;;;3.25;;
64903;SDS011;51401;48.882;12.598;2024-02-23T00:21:52;4.55;;;3.30;;
64903;SDS011;51401;48.882;12.598;2024-02-23T00:24:18;4.43;;;2.83;;
64903;SDS011;51401;48.882;12.598;2024-02-23T00:26:45;3.63;;;2.58;;
64903;SDS011;51401;48.882;12.598;2024-02-23T00:29:11;5.00;;;2.28;;
64903;SDS011;51401;48.882;12.598;2024-02-23T00:31:39;1.77;;;1.00;;
64903;SDS011;51401;48.882;12.598;2024-02-23T00:34:10;0.90;;;0.70;;
64903;SDS011;51401;48.882;12.598;2024-02-23T00:36:37;0.88;;;0.50;;
64903;SDS011;51401;48.882;12.598;2024-02-23T00:39:03;0.65;;;0.65;;
64903;SDS011;51401;48.882;12.598;2024-02-23T00:41:28;0.82;;;0.70;;
64903;SDS011;51401;48.882;12.598;2024-02-23T00:43:54;1.40;;;0.77;;
64903;SDS011;51401;48.882;12.598;2024-02-23T00:46:19;2.50;;;0.70;;
64903;SDS011;51401;48.882;12.598;2024-02-23T00:48:44;0.57;;;0.57;;
64903;SDS011;51401;48.882;12.598;2024-02-23T00:51:09;0.82;;;0.60;;
64903;SDS011;51401;48.882;12.598;2024-02-23T00:53:38;1.23;;;0.73;;
64903;SDS011;51401;48.882;12.598;2024-02-23T00:56:03;0.63;;;0.57;;
64903;SDS011;51401;48.882;12.598;2024-02-23T00:58:29;1.00;;;0.90;;
64903;SDS011;51401;48.882;12.598;2024-02-23T01:00:54;2.50;;;1.00;;
64903;SDS011;51401;48.882;12.598;2024-02-23T01:03:20;2.15;;;1.42;;
64903;SDS011;51401;48.882;12.598;2024-02-23T01:05:46;1.95;;;1.30;;
64903;SDS011;51401;48.882;12.598;2024-02-23T01:08:11;2.35;;;1.70;;
64903;SDS011;51401;48.882;12.598;2024-02-23T01:10:36;2.45;;;1.90;;
64903;SDS011;51401;48.882;12.598;2024-02-23T01:13:02;3.22;;;2.10;;
64903;SDS011;51401;48.882;12.598;2024-02-23T01:15:27;2.97;;;2.35;;
64903;SDS011;51401;48.882;12.598;2024-02-23T01:17:52;3.28;;;2.38;;
64903;SDS011;51401;48.882;12.598;2024-02-23T01:20:18;3.42;;;2.60;;
64903;SDS011;51401;48.882;12.598;2024-02-23T01:22:43;4.05;;;2.92;;
64903;SDS011;51401;48.882;12.598;2024-02-23T01:25:08;3.75;;;2.80;;
64903;SDS011;51401;48.882;12.598;2024-02-23T01:27:34;4.85;;;3.13;;
64903;SDS011;51401;48.882;12.598;2024-02-23T01:29:59;4.53;;;3.75;;
64903;SDS011;51401;48.882;12.598;2024-02-23T01:32:25;3.90;;;3.10;;
64903;SDS011;51401;48.882;12.598;2024-02-23T01:34:50;4.78;;;3.35;;
64903;SDS011;51401;48.882;12.598;2024-02-23T01:37:15;4.85;;;3.70;;
64903;SDS011;51401;48.882;12.598;2024-02-23T01:39:40;5.10;;;3.33;;
64903;SDS011;51401;48.882;12.598;2024-02-23T01:42:06;5.22;;;3.42;;
64903;SDS011;51401;48.882;12.598;2024-02-23T01:44:31;2.90;;;2.60;;
64903;SDS011;51401;48.882;12.598;2024-02-23T01:46:57;3.10;;;2.33;;
64903;SDS011;51401;48.882;12.598;2024-02-23T01:49:23;2.30;;;2.00;;
64903;SDS011;51401;48.882;12.598;2024-02-23T01:51:54;2.70;;;1.83;;
64903;SDS011;51401;48.882;12.598;2024-02-23T01:54:22;2.63;;;1.67;;
64903;SDS011;51401;48.882;12.598;2024-02-23T01:56:48;1.70;;;1.10;;
64903;SDS011;51401;48.882;12.598;2024-02-23T01:59:14;1.63;;;1.05;;
64903;SDS011;51401;48.882;12.598;2024-02-23T02:01:40;1.35;;;0.90;;
64903;SDS011;51401;48.882;12.598;2024-02-23T02:04:08;1.00;;;0.90;;
64903;SDS011;51401;48.882;12.598;2024-02-23T02:06:33;1.40;;;0.70;;
64903;SDS011;51401;48.882;12.598;2024-02-23T02:08:58;1.80;;;0.73;;
64903;SDS011;51401;48.882;12.598;2024-02-23T02:11:24;0.65;;;0.60;;
64903;SDS011;51401;48.882;12.598;2024-02-23T02:13:49;0.70;;;0.60;;
64903;SDS011;51401;48.882;12.598;2024-02-23T02:16:15;0.52;;;0.50;;
64903;SDS011;51401;48.882;12.598;2024-02-23T02:18:43;0.60;;;0.60;;
64903;SDS011;51401;48.882;12.598;2024-02-23T02:21:10;0.40;;;0.40;;
64903;SDS011;51401;48.882;12.598;2024-02-23T02:23:36;1.23;;;0.50;;
64903;SDS011;51401;48.882;12.598;2024-02-23T02:26:02;1.17;;;0.50;;
64903;SDS011;51401;48.882;12.598;2024-02-23T02:28:27;1.13;;;0.45;;
64903;SDS011;51401;48.882;12.598;2024-02-23T02:30:53;0.85;;;0.50;;
64903;SDS011;51401;48.882;12.598;2024-02-23T02:33:18;0.52;;;0.28;;
64903;SDS011;51401;48.882;12.598;2024-02-23T02:35:44;0.75;;;0.30;;
64903;SDS011;51401;48.882;12.598;2024-02-23T02:38:10;1.10;;;0.30;;
64903;SDS011;51401;48.882;12.598;2024-02-23T02:40:36;0.25;;;0.25;;
64903;SDS011;51401;48.882;12.598;2024-02-23T02:43:01;0.35;;;0.35;;
64903;SDS011;51401;48.882;12.598;2024-02-23T02:45:27;0.30;;;0.30;;
64903;SDS011;51401;48.882;12.598;2024-02-23T02:47:52;0.20;;;0.20;;
64903;SDS011;51401;48.882;12.598;2024-02-23T02:50:18;0.43;;;0.30;;
64903;SDS011;51401;48.882;12.598;2024-02-23T02:52:43;0.20;;;0.20;;
64903;SDS011;51401;48.882;12.598;2024-02-23T02:55:09;0.30;;;0.30;;
64903;SDS011;51401;48.882;12.598;2024-02-23T02:57:34;1.05;;;0.40;;
64903;SDS011;51401;48.882;12.598;2024-02-23T03:00:03;0.50;;;0.30;;
64903;SDS011;51401;48.882;12.598;2024-02-23T03:02:33;0.25;;;0.25;;
64903;SDS011;51401;48.882;12.598;2024-02-23T03:05:00;0.20;;;0.20;;
64903;SDS011;51401;48.882;12.598;2024-02-23T03:07:25;0.30;;;0.22;;
64903;SDS011;51401;48.882;12.598;2024-02-23T03:09:50;0.20;;;0.20;;
64903;SDS011;51401;48.882;12.598;2024-02-23T03:12:16;0.22;;;0.22;;
64903;SDS011;51401;48.882;12.598;2024-02-23T03:14:42;0.40;;;0.30;;
64903;SDS011;51401;48.882;12.598;2024-02-23T03:17:07;0.20;;;0.20;;
64903;SDS011;51401;48.882;12.598;2024-02-23T03:19:34;1.17;;;0.30;;
64903;SDS011;51401;48.882;12.598;2024-02-23T03:22:02;1.73;;;0.40;;
64903;SDS011;51401;48.882;12.598;2024-02-23T03:24:28;0.75;;;0.40;;
64903;SDS011;51401;48.882;12.598;2024-02-23T03:26:53;0.52;;;0.30;;
64903;SDS011;51401;48.882;12.598;2024-02-23T03:29:19;0.35;;;0.20;;
64903;SDS011;51401;48.882;12.598;2024-02-23T03:31:47;0.20;;;0.20;;
64903;SDS011;51401;48.882;12.598;2024-02-23T03:34:12;1.23;;;0.28;;
64903;SDS011;51401;48.882;12.598;2024-02-23T03:36:38;0.20;;;0.20;;
64903;SDS011;51401;48.882;12.598;2024-02-23T03:39:03;0.75;;;0.30;;
64903;SDS011;51401;48.882;12.598;2024-02-23T03:41:28;0.33;;;0.33;;
64903;SDS011;51401;48.882;12.598;2024-02-23T03:43:54;0.20;;;0.20;;
64903;SDS011;51401;48.882;12.598;2024-02-23T03:46:20;0.22;;;0.22;;
64903;SDS011;51401;48.882;12.598;2024-02-23T03:48:46;1.60;;;0.40;;
64903;SDS011;51401;48.882;12.598;2024-02-23T03:51:12;0.20;;;0.20;;
64903;SDS011;51401;48.882;12.598;2024-02-23T03:53:37;0.20;;;0.20;;
64903;SDS011;51401;48.882;12.598;2024-02-23T03:56:03;0.50;;;0.50;;
64903;SDS011;51401;48.882;12.598;2024-02-23T03:58:28;0.55;;;0.30;;
64903;SDS011;51401;48.882;12.598;2024-02-23T04:00:54;0.40;;;0.20;;
64903;SDS011;51401;48.882;12.598;2024-02-23T04:03:20;0.20;;;0.20;;
64903;SDS011;51401;48.882;12.598;2024-02-23T04:05:45;1.58;;;0.30;;
64903;SDS011;51401;48.882;12.598;2024-02-23T04:08:11;0.95;;;0.30;;
64903;SDS011;51401;48.882;12.598;2024-02-23T04:10:36;0.38;;;0.30;;
64903;SDS011;51401;48.882;12.598;2024-02-23T04:13:01;0.40;;;0.30;;
64903;SDS011;51401;48.882;12.598;2024-02-23T04:15:27;0.45;;;0.38;;
64903;SDS011;51401;48.882;12.598;2024-02-23T04:17:52;1.25;;;0.25;;
64903;SDS011;51401;48.882;12.598;2024-02-23T04:20:17;0.50;;;0.30;;
64903;SDS011;51401;48.882;12.598;2024-02-23T04:22:43;0.40;;;0.40;;
64903;SDS011;51401;48.882;12.598;2024-02-23T04:25:08;0.38;;;0.30;;
64903;SDS011;51401;48.882;12.598;2024-02-23T04:27:33;0.10;;;0.10;;
64903;SDS011;51401;48.882;12.598;2024-02-23T04:29:59;1.00;;;0.40;;
64903;SDS011;51401;48.882;12.598;2024-02-23T04:32:24;1.55;;;0.30;;
64903;SDS011;51401;48.882;12.598;2024-02-23T04:34:49;0.30;;;0.30;;
64903;SDS011;51401;48.882;12.598;2024-02-23T04:37:14;0.43;;;0.38;;
64903;SDS011;51401;48.882;12.598;2024-02-23T04:39:40;0.43;;;0.40;;
64903;SDS011;51401;48.882;12.598;2024-02-23T04:42:07;0.82;;;0.70;;
64903;SDS011;51401;48.882;12.598;2024-02-23T04:44:33;0.30;;;0.30;;
64903;SDS011;51401;48.882;12.598;2024-02-23T04:46:59;0.30;;;0.30;;
64903;SDS011;51401;48.882;12.598;2024-02-23T04:49:24;0.20;;;0.20;;
64903;SDS011;51401;48.882;12.598;2024-02-23T04:51:50;1.23;;;0.70;;
64903;SDS011;51401;48.882;12.598;2024-02-23T04:54:15;0.43;;;0.30;;
64903;SDS011;51401;48.882;12.598;2024-02-23T04:56:40;0.52;;;0.47;;
64903;SDS011;51401;48.882;12.598;2024-02-23T04:59:05;0.80;;;0.47;;
64903;SDS011;51401;48.882;12.598;2024-02-23T05:01:34;2.63;;;1.10;;
64903;SDS011;51401;48.882;12.598;2024-02-23T05:04:01;0.30;;;0.30;;
64903;SDS011;51401;48.882;12.598;2024-02-23T05:06:26;1.83;;;0.55;;
64903;SDS011;51401;48.882;12.598;2024-02-23T05:08:52;1.27;;;0.88;;
64903;SDS011;51401;48.882;12.598;2024-02-23T05:11:17;3.17;;;1.20;;
64903;SDS011;51401;48.882;12.598;2024-02-23T05:13:42;1.13;;;0.75;;
64903;SDS011;51401;48.882;12.598;2024-02-23T05:16:08;1.70;;;0.82;;
64903;SDS011;51401;48.882;12.598;2024-02-23T05:18:33;1.05;;;0.60;;
64903;SDS011;51401;48.882;12.598;2024-02-23T05:20:58;0.80;;;0.40;;
64903;SDS011;51401;48.882;12.598;2024-02-23T05:23:23;0.45;;;0.40;;
64903;SDS011;51401;48.882;12.598;2024-02-23T05:25:49;0.93;;;0.50;;
64903;SDS011;51401;48.882;12.598;2024-02-23T05:28:14;1.80;;;0.73;;
64903;SDS011;51401;48.882;12.598;2024-02-23T05:30:40;0.75;;;0.70;;
64903;SDS011;51401;48.882;12.598;2024-02-23T05:33:05;1.90;;;1.45;;
64903;SDS011;51401;48.882;12.598;2024-02-23T05:35:31;1.05;;;0.82;;
64903;SDS011;51401;48.882;12.598;2024-02-23T05:37:56;2.17;;;1.23;;
64903;SDS011;51401;48.882;12.598;2024-02-23T05:40:22;1.65;;;0.80;;
64903;SDS011;51401;48.882;12.598;2024-02-23T05:42:47;3.53;;;1.65;;
64903;SDS011;51401;48.882;12.598;2024-02-23T05:45:12;3.05;;;1.88;;
64903;SDS011;51401;48.882;12.598;2024-02-23T05:47:38;3.00;;;2.03;;
64903;SDS011;51401;48.882;12.598;2024-02-23T05:50:04;4.35;;;2.03;;
64903;SDS011;51401;48.882;12.598;2024-02-23T05:52:33;2.85;;;1.90;;
64903;SDS011;51401;48.882;12.598;2024-02-23T05:54:59;3.20;;;1.52;;
64903;SDS011;51401;48.882;12.598;2024-02-23T05:57:28;1.20;;;0.80;;
64903;SDS011;51401;48.882;12.598;2024-02-23T05:59:53;1.25;;;0.57;;
64903;SDS011;51401;48.882;12.598;2024-02-23T06:02:20;1.63;;;0.60;;
64903;SDS011;51401;48.882;12.598;2024-02-23T06:04:45;0.82;;;0.60;;
64903;SDS011;51401;48.882;12.598;2024-02-23T06:07:10;1.17;;;0.70;;
64903;SDS011;51401;48.882;12.598;2024-02-23T06:09:36;2.28;;;0.50;;
64903;SDS011;51401;48.882;12.598;2024-02-23T06:12:01;1.45;;;0.73;;
64903;SDS011;51401;48.882;12.598;2024-02-23T06:14:29;0.82;;;0.52;;
64903;SDS011;51401;48.882;12.598;2024-02-23T06:16:57;0.60;;;0.50;;
64903;SDS011;51401;48.882;12.598;2024-02-23T06:19:23;2.23;;;0.73;;
64903;SDS011;51401;48.882;12.598;2024-02-23T06:21:48;1.83;;;0.82;;
64903;SDS011;51401;48.882;12.598;2024-02-23T06:24:15;2.60;;;0.98;;
64903;SDS011;51401;48.882;12.598;2024-02-23T06:26:40;1.88;;;0.85;;
64903;SDS011;51401;48.882;12.598;2024-02-23T06:29:06;2.22;;;0.95;;
64903;SDS011;51401;48.882;12.598;2024-02-23T06:31:33;1.17;;;0.70;;
64903;SDS011;51401;48.882;12.598;2024-02-23T06:33:59;1.05;;;0.68;;
64903;SDS011;51401;48.882;12.598;2024-02-23T06:36:25;1.58;;;0.68;;
64903;SDS011;51401;48.882;12.598;2024-02-23T06:38:50;1.02;;;0.70;;
64903;SDS011;51401;48.882;12.598;2024-02-23T06:41:16;0.90;;;0.68;;
64903;SDS011;51401;48.882;12.598;2024-02-23T06:43:41;0.73;;;0.60;;
64903;SDS011;51401;48.882;12.598;2024-02-23T06:46:07;0.90;;;0.52;;
64903;SDS011;51401;48.882;12.598;2024-02-23T06:48:36;0.80;;;0.50;;
64903;SDS011;51401;48.882;12.598;2024-02-23T06:51:02;0.95;;;0.55;;
64903;SDS011;51401;48.882;12.598;2024-02-23T06:53:28;1.13;;;0.77;;
64903;SDS011;51401;48.882;12.598;2024-02-23T06:55:54;1.55;;;1.02;;
64903;SDS011;51401;48.882;12.598;2024-02-23T06:58:19;2.20;;;1.38;;
64903;SDS011;51401;48.882;12.598;2024-02-23T07:00:44;2.35;;;1.20;;
64903;SDS011;51401;48.882;12.598;2024-02-23T07:03:10;2.95;;;1.35;;
64903;SDS011;51401;48.882;12.598;2024-02-23T07:05:35;2.75;;;1.40;;
64903;SDS011;51401;48.882;12.598;2024-02-23T07:08:03;1.58;;;1.20;;
64903;SDS011;51401;48.882;12.598;2024-02-23T07:10:29;1.70;;;1.05;;
64903;SDS011;51401;48.882;12.598;2024-02-23T07:12:54;2.58;;;0.80;;
64903;SDS011;51401;48.882;12.598;2024-02-23T07:15:21;2.55;;;0.70;;
64903;SDS011;51401;48.882;12.598;2024-02-23T07:17:46;1.88;;;1.08;;
64903;SDS011;51401;48.882;12.598;2024-02-23T07:20:12;2.08;;;1.33;;
64903;SDS011;51401;48.882;12.598;2024-02-23T07:22:38;1.88;;;0.80;;
64903;SDS011;51401;48.882;12.598;2024-02-23T07:25:04;1.90;;;1.23;;
64903;SDS011;51401;48.882;12.598;2024-02-23T07:27:30;1.00;;;0.90;;
64903;SDS011;51401;48.882;12.598;2024-02-23T07:29:56;1.23;;;0.90;;
64903;SDS011;51401;48.882;12.598;2024-02-23T07:32:22;1.50;;;0.80;;
64903;SDS011;51401;48.882;12.598;2024-02-23T07:34:47;2.38;;;0.55;;
64903;SDS011;51401;48.882;12.598;2024-02-23T07:37:13;1.75;;;1.10;;
64903;SDS011;51401;48.882;12.598;2024-02-23T07:39:38;2.83;;;1.20;;
64903;SDS011;51401;48.882;12.598;2024-02-23T07:42:04;1.50;;;0.80;;
64903;SDS011;51401;48.882;12.598;2024-02-23T07:44:31;2.63;;;1.08;;
64903;SDS011;51401;48.882;12.598;2024-02-23T07:46:56;0.80;;;0.60;;
64903;SDS011;51401;48.882;12.598;2024-02-23T07:49:23;0.90;;;0.65;;
64903;SDS011;51401;48.882;12.598;2024-02-23T07:51:48;1.52;;;0.65;;
64903;SDS011;51401;48.882;12.598;2024-02-23T07:54:15;1.48;;;0.85;;
64903;SDS011;51401;48.882;12.598;2024-02-23T07:56:40;0.80;;;0.50;;
64903;SDS011;51401;48.882;12.598;2024-02-23T07:59:05;0.98;;;0.50;;
64903;SDS011;51401;48.882;12.598;2024-02-23T08:01:31;1.10;;;0.75;;
64903;SDS011;51401;48.882;12.598;2024-02-23T08:03:57;0.98;;;0.68;;
64903;SDS011;51401;48.882;12.598;2024-02-23T08:06:22;1.48;;;0.80;;
64903;SDS011;51401;48.882;12.598;2024-02-23T08:08:47;3.10;;;1.35;;
64903;SDS011;51401;48.882;12.598;2024-02-23T08:11:12;1.08;;;0.65;;
64903;SDS011;51401;48.882;12.598;2024-02-23T08:13:38;2.72;;;1.13;;
64903;SDS011;51401;48.882;12.598;2024-02-23T08:16:04;1.73;;;1.40;;
64903;SDS011;51401;48.882;12.598;2024-02-23T08:18:30;1.88;;;0.75;;
64903;SDS011;51401;48.882;12.598;2024-02-23T08:20:56;2.35;;;1.10;;
64903;SDS011;51401;48.882;12.598;2024-02-23T08:23:22;1.98;;;1.20;;
64903;SDS011;51401;48.882;12.598;2024-02-23T08:25:48;2.65;;;1.35;;
64903;SDS011;51401;48.882;12.598;2024-02-23T08:28:13;1.37;;;1.00;;
64903;SDS011;51401;48.882;12.598;2024-02-23T08:30:39;1.38;;;0.85;;
64903;SDS011;51401;48.882;12.598;2024-02-23T08:33:04;1.85;;;1.00;;
64903;SDS011;51401;48.882;12.598;2024-02-23T08:35:30;2.47;;;1.38;;
64903;SDS011;51401;48.882;12.598;2024-02-23T08:37:55;2.03;;;1.45;;
64903;SDS011;51401;48.882;12.598;2024-02-23T08:40:21;3.88;;;2.05;;
64903;SDS011;51401;48.882;12.598;2024-02-23T08:42:47;2.65;;;1.80;;
64903;SDS011;51401;48.882;12.598;2024-02-23T08:45:12;3.50;;;2.50;;
64903;SDS011;51401;48.882;12.598;2024-02-23T08:47:38;5.45;;;2.90;;
64903;SDS011;51401;48.882;12.598;2024-02-23T08:50:04;1.50;;;1.02;;
64903;SDS011;51401;48.882;12.598;2024-02-23T08:52:30;1.45;;;1.25;;
64903;SDS011;51401;48.882;12.598;2024-02-23T08:54:55;0.65;;;0.60;;
64903;SDS011;51401;48.882;12.598;2024-02-23T08:57:21;0.82;;;0.70;;
64903;SDS011;51401;48.882;12.598;2024-02-23T08:59:48;2.03;;;0.80;;
64903;SDS011;51401;48.882;12.598;2024-02-23T09:02:15;4.32;;;3.25;;
64903;SDS011;51401;48.882;12.598;2024-02-23T09:04:41;1.05;;;0.73;;
64903;SDS011;51401;48.882;12.598;2024-02-23T09:07:06;1.10;;;0.98;;
64903;SDS011;51401;48.882;12.598;2024-02-23T09:09:31;0.68;;;0.60;;
64903;SDS011;51401;48.882;12.598;2024-02-23T09:11:57;1.73;;;0.68;;
64903;SDS011;51401;48.882;12.598;2024-02-23T09:14:22;1.80;;;0.60;;
64903;SDS011;51401;48.882;12.598;2024-02-23T09:16:47;1.52;;;0.90;;
64903;SDS011;51401;48.882;12.598;2024-02-23T09:19:16;1.10;;;0.80;;
64903;SDS011;51401;48.882;12.598;2024-02-23T09:21:41;0.70;;;0.70;;
64903;SDS011;51401;48.882;12.598;2024-02-23T09:24:07;1.98;;;1.13;;
64903;SDS011;51401;48.882;12.598;2024-02-23T09:26:32;1.38;;;1.02;;
64903;SDS011;51401;48.882;12.598;2024-02-23T09:28:57;0.82;;;0.70;;
64903;SDS011;51401;48.882;12.598;2024-02-23T09:31:23;2.25;;;0.60;;
64903;SDS011;51401;48.882;12.598;2024-02-23T09:33:48;1.53;;;0.70;;
64903;SDS011;51401;48.882;12.598;2024-02-23T09:36:16;0.80;;;0.60;;
64903;SDS011;51401;48.882;12.598;2024-02-23T09:38:42;0.70;;;0.60;;
64903;SDS011;51401;48.882;12.598;2024-02-23T09:41:11;1.98;;;1.08;;
64903;SDS011;51401;48.882;12.598;2024-02-23T09:43:42;1.08;;;0.60;;
64903;SDS011;51401;48.882;12.598;2024-02-23T09:46:09;0.52;;;0.50;;
64903;SDS011;51401;48.882;12.598;2024-02-23T09:48:35;0.82;;;0.45;;
64903;SDS011;51401;48.882;12.598;2024-02-23T09:51:01;0.75;;;0.70;;
64903;SDS011;51401;48.882;12.598;2024-02-23T09:53:28;1.17;;;0.65;;
64903;SDS011;51401;48.882;12.598;2024-02-23T09:55:54;1.52;;;0.88;;
64903;SDS011;51401;48.882;12.598;2024-02-23T09:58:20;3.03;;;1.45;;
64903;SDS011;51401;48.882;12.598;2024-02-23T10:00:46;1.98;;;0.82;;
64903;SDS011;51401;48.882;12.598;2024-02-23T10:03:12;2.25;;;1.13;;
64903;SDS011;51401;48.882;12.598;2024-02-23T10:05:37;1.17;;;0.60;;
64903;SDS011;51401;48.882;12.598;2024-02-23T10:08:03;3.35;;;0.88;;
64903;SDS011;51401;48.882;12.598;2024-02-23T10:10:29;2.67;;;1.15;;
64903;SDS011;51401;48.882;12.598;2024-02-23T10:12:56;2.45;;;1.17;;
64903;SDS011;51401;48.882;12.598;2024-02-23T10:15:22;4.50;;;2.40;;
64903;SDS011;51401;48.882;12.598;2024-02-23T10:17:47;2.10;;;1.00;;
64903;SDS011;51401;48.882;12.598;2024-02-23T10:20:13;1.30;;;1.00;;
64903;SDS011;51401;48.882;12.598;2024-02-23T10:22:39;2.85;;;0.50;;
64903;SDS011;51401;48.882;12.598;2024-02-23T10:25:07;1.55;;;0.82;;
64903;SDS011;51401;48.882;12.598;2024-02-23T10:27:33;2.63;;;0.80;;
64903;SDS011;51401;48.882;12.598;2024-02-23T10:29:58;1.70;;;0.80;;
64903;SDS011;51401;48.882;12.598;2024-02-23T10:32:23;1.92;;;0.60;;
64903;SDS011;51401;48.882;12.598;2024-02-23T10:34:54;0.95;;;0.50;;
64903;SDS011;51401;48.882;12.598;2024-02-23T10:37:21;1.55;;;0.65;;
64903;SDS011;51401;48.882;12.598;2024-02-23T10:39:47;1.92;;;1.08;;
64903;SDS011;51401;48.882;12.598;2024-02-23T10:42:15;0.77;;;0.60;;
64903;SDS011;51401;48.882;12.598;2024-02-23T10:44:45;1.90;;;1.05;;
64903;SDS011;51401;48.882;12.598;2024-02-23T10:47:10;2.55;;;1.20;;
64903;SDS011;51401;48.882;12.598;2024-02-23T10:49:36;2.00;;;0.80;;
64903;SDS011;51401;48.882;12.598;2024-02-23T10:52:03;2.60;;;0.90;;
64903;SDS011;51401;48.882;12.598;2024-02-23T10:54:29;0.85;;;0.70;;
64903;SDS011;51401;48.882;12.598;2024-02-23T10:56:56;1.52;;;0.70;;
64903;SDS011;51401;48.882;12.598;2024-02-23T10:59:21;0.50;;;0.50;;
64903;SDS011;51401;48.882;12.598;2024-02-23T11:01:53;2.33;;;0.75;;
64903;SDS011;51401;48.882;12.598;2024-02-23T11:04:21;2.00;;;0.60;;
64903;SDS011;51401;48.882;12.598;2024-02-23T11:06:54;1.52;;;0.70;;
64903;SDS011;51401;48.882;12.598;2024-02-23T11:09:21;0.85;;;0.60;;
64903;SDS011;51401;48.882;12.598;2024-02-23T11:11:57;1.00;;;0.50;;
64903;SDS011;51401;48.882;12.598;2024-02-23T11:14:36;1.08;;;0.73;;
64903;SDS011;51401;48.882;12.598;2024-02-23T11:17:02;2.05;;;1.15;;
64903;SDS011;51401;48.882;12.598;2024-02-23T11:19:34;1.40;;;0.90;;
64903;SDS011;51401;48.882;12.598;2024-02-23T11:22:01;1.98;;;0.60;;
64903;SDS011;51401;48.882;12.598;2024-02-23T11:24:30;1.45;;;1.00;;
64903;SDS011;51401;48.882;12.598;2024-02-23T11:26:57;1.88;;;0.80;;
64903;SDS011;51401;48.882;12.598;2024-02-23T11:29:33;2.80;;;1.75;;
64903;SDS011;51401;48.882;12.598;2024-02-23T11:31:59;2.85;;;1.60;;
64903;SDS011;51401;48.882;12.598;2024-02-23T11:34:26;1.55;;;1.20;;
64903;SDS011;51401;48.882;12.598;2024-02-23T11:36:53;3.33;;;1.40;;
64903;SDS011;51401;48.882;12.598;2024-02-23T11:39:19;2.35;;;1.52;;
64903;SDS011;51401;48.882;12.598;2024-02-23T11:41:45;3.60;;;1.80;;
64903;SDS011;51401;48.882;12.598;2024-02-23T11:44:14;3.15;;;2.47;;
64903;SDS011;51401;48.882;12.598;2024-02-23T11:46:42;1.27;;;0.70;;
64903;SDS011;51401;48.882;12.598;2024-02-23T11:49:07;2.05;;;1.58;;
64903;SDS011;51401;48.882;12.598;2024-02-23T11:51:33;2.60;;;1.40;;
64903;SDS011;51401;48.882;12.598;2024-02-23T11:53:58;2.13;;;1.17;;
64903;SDS011;51401;48.882;12.598;2024-02-23T11:56:25;1.02;;;0.82;;
64903;SDS011;51401;48.882;12.598;2024-02-23T11:58:51;1.60;;;0.63;;
64903;SDS011;51401;48.882;12.598;2024-02-23T12:01:16;1.08;;;0.73;;
64903;SDS011;51401;48.882;12.598;2024-02-23T12:03:41;1.23;;;0.60;;
64903;SDS011;51401;48.882;12.598;2024-02-23T12:06:08;0.80;;;0.70;;
64903;SDS011;51401;48.882;12.598;2024-02-23T12:08:35;1.00;;;0.80;;
64903;SDS011;51401;48.882;12.598;2024-02-23T12:11:05;1.60;;;0.70;;
64903;SDS011;51401;48.882;12.598;2024-02-23T12:13:30;1.58;;;0.60;;
64903;SDS011;51401;48.882;12.598;2024-02-23T12:15:57;2.63;;;0.70;;
64903;SDS011;51401;48.882;12.598;2024-02-23T12:18:23;2.13;;;1.30;;
64903;SDS011;51401;48.882;12.598;2024-02-23T12:20:51;1.55;;;0.80;;
64903;SDS011;51401;48.882;12.598;2024-02-23T12:23:16;1.63;;;0.90;;
64903;SDS011;51401;48.882;12.598;2024-02-23T12:25:52;2.38;;;1.38;;
64903;SDS011;51401;48.882;12.598;2024-02-23T12:28:22;2.97;;;2.60;;
64903;SDS011;51401;48.882;12.598;2024-02-23T12:30:58;4.32;;;2.00;;
64903;SDS011;51401;48.882;12.598;2024-02-23T12:33:24;7.20;;;3.47;;
64903;SDS011;51401;48.882;12.598;2024-02-23T12:35:53;6.95;;;4.00;;
64903;SDS011;51401;48.882;12.598;2024-02-23T12:38:19;2.20;;;0.90;;
64903;SDS011;51401;48.882;12.598;2024-02-23T12:40:45;0.65;;;0.55;;
64903;SDS011;51401;48.882;12.598;2024-02-23T12:43:10;1.80;;;1.42;;
64903;SDS011;51401;48.882;12.598;2024-02-23T12:45:35;1.43;;;1.13;;
64903;SDS011;51401;48.882;12.598;2024-02-23T12:48:01;4.47;;;2.70;;
64903;SDS011;51401;48.882;12.598;2024-02-23T12:50:27;22.33;;;10.85;;
64903;SDS011;51401;48.882;12.598;2024-02-23T12:52:54;5.15;;;3.17;;
64903;SDS011;51401;48.882;12.598;2024-02-23T12:55:20;1.30;;;1.08;;
64903;SDS011;51401;48.882;12.598;2024-02-23T12:57:45;6.50;;;3.90;;
64903;SDS011;51401;48.882;12.598;2024-02-23T13:00:10;3.35;;;1.63;;
64903;SDS011;51401;48.882;12.598;2024-02-23T13:02:36;0.98;;;0.80;;
64903;SDS011;51401;48.882;12.598;2024-02-23T13:05:02;4.05;;;2.13;;
64903;SDS011;51401;48.882;12.598;2024-02-23T13:07:27;1.20;;;1.00;;
64903;SDS011;51401;48.882;12.598;2024-02-23T13:09:52;1.70;;;1.20;;
64903;SDS011;51401;48.882;12.598;2024-02-23T13:12:18;2.50;;;1.48;;
64903;SDS011;51401;48.882;12.598;2024-02-23T13:14:43;1.33;;;1.15;;
64903;SDS011;51401;48.882;12.598;2024-02-23T13:17:08;1.60;;;1.50;;
64903;SDS011;51401;48.882;12.598;2024-02-23T13:19:33;1.87;;;1.37;;
64903;SDS011;51401;48.882;12.598;2024-02-23T13:21:59;1.63;;;1.23;;
64903;SDS011;51401;48.882;12.598;2024-02-23T13:24:26;1.20;;;1.00;;
64903;SDS011;51401;48.882;12.598;2024-02-23T13:26:51;0.90;;;0.65;;
64903;SDS011;51401;48.882;12.598;2024-02-23T13:29:16;0.77;;;0.73;;
64903;SDS011;51401;48.882;12.598;2024-02-23T13:31:42;1.00;;;0.80;;
64903;SDS011;51401;48.882;12.598;2024-02-23T13:34:08;3.38;;;1.38;;
64903;SDS011;51401;48.882;12.598;2024-02-23T13:36:34;2.20;;;1.05;;
64903;SDS011;51401;48.882;12.598;2024-02-23T13:39:00;1.08;;;0.82;;
64903;SDS011;51401;48.882;12.598;2024-02-23T13:41:25;1.38;;;0.90;;
64903;SDS011;51401;48.882;12.598;2024-02-23T13:43:50;0.85;;;0.65;;
64903;SDS011;51401;48.882;12.598;2024-02-23T13:46:15;0.63;;;0.60;;
64903;SDS011;51401;48.882;12.598;2024-02-23T13:48:41;0.90;;;0.70;;
64903;SDS011;51401;48.882;12.598;2024-02-23T13:51:06;1.55;;;0.70;;
64903;SDS011;51401;48.882;12.598;2024-02-23T13:53:32;1.38;;;0.60;;
64903;SDS011;51401;48.882;12.598;2024-02-23T13:55:58;2.17;;;1.35;;
64903;SDS011;51401;48.882;12.598;2024-02-23T13:58:24;1.13;;;0.95;;
64903;SDS011;51401;48.882;12.598;2024-02-23T14:00:50;1.90;;;1.15;;
64903;SDS011;51401;48.882;12.598;2024-02-23T14:03:16;8.60;;;4.43;;
64903;SDS011;51401;48.882;12.598;2024-02-23T14:05:48;1.50;;;0.90;;
64903;SDS011;51401;48.882;12.598;2024-02-23T14:08:13;2.38;;;1.40;;
64903;SDS011;51401;48.882;12.598;2024-02-23T14:10:39;2.33;;;1.35;;
64903;SDS011;51401;48.882;12.598;2024-02-23T14:13:05;1.95;;;1.30;;
64903;SDS011;51401;48.882;12.598;2024-02-23T14:15:30;3.00;;;1.77;;
64903;SDS011;51401;48.882;12.598;2024-02-23T14:17:56;1.38;;;1.20;;
64903;SDS011;51401;48.882;12.598;2024-02-23T14:20:21;2.23;;;1.53;;
64903;SDS011;51401;48.882;12.598;2024-02-23T14:22:46;2.20;;;1.48;;
64903;SDS011;51401;48.882;12.598;2024-02-23T14:25:12;2.83;;;1.95;;
64903;SDS011;51401;48.882;12.598;2024-02-23T14:27:37;4.13;;;2.95;;